sensor_id;sensor_type;location;lat;lon;timestamp;temperature;humidity
50556;DHT22;36508;52.512;13.450;2022-11-18T00:02:13;4.00;99.90
50556;DHT22;36508;52.512;13.450;2022-11-18T00:04:39;3.90;99.90
50556;DHT22;36508;52.512;13.450;2022-11-18T00:07:04;3.80;99.90
50556;DHT22;36508;52.512;13.450;2022-11-18T00:09:30;3.80;99.90
50556;DHT22;36508;52.512;13.450;2022-11-18T00:11:55;3.80;99.90
50556;DHT22;36508;52.512;13.450;2022-11-18T00:14:39;3.80;99.90
50556;DHT22;36508;52.512;13.450;2022-11-18T00:17:06;3.80;99.90
50556;DHT22;36508;52.512;13.450;2022-11-18T00:19:34;3.70;99.90
50556;DHT22;36508;52.512;13.450;2022-11-18T00:22:01;3.70;99.90
50556;DHT22;36508;52.512;13.450;2022-11-18T00:24:27;3.70;99.90
50556;DHT22;36508;52.512;13.450;2022-11-18T00:26:54;3.60;99.90
50556;DHT22;36508;52.512;13.450;2022-11-18T00:29:20;3.50;99.90
50556;DHT22;36508;52.512;13.450;2022-11-18T00:31:46;3.60;99.90
50556;DHT22;36508;52.512;13.450;2022-11-18T00:34:13;3.50;99.90
50556;DHT22;36508;52.512;13.450;2022-11-18T00:36:41;3.40;99.90
50556;DHT22;36508;52.512;13.450;2022-11-18T00:39:07;3.50;99.90
50556;DHT22;36508;52.512;13.450;2022-11-18T00:41:33;3.60;99.90
50556;DHT22;36508;52.512;13.450;2022-11-18T00:44:19;3.60;99.90
50556;DHT22;36508;52.512;13.450;2022-11-18T00:46:44;3.70;99.90
50556;DHT22;36508;52.512;13.450;2022-11-18T00:49:10;3.70;99.90
50556;DHT22;36508;52.512;13.450;2022-11-18T00:51:35;3.70;99.90
50556;DHT22;36508;52.512;13.450;2022-11-18T00:54:01;3.60;99.90
50556;DHT22;36508;52.512;13.450;2022-11-18T00:56:27;3.60;99.90
50556;DHT22;36508;52.512;13.450;2022-11-18T00:58:52;3.50;99.90
50556;DHT22;36508;52.512;13.450;2022-11-18T01:01:18;3.50;99.90
50556;DHT22;36508;52.512;13.450;2022-11-18T01:03:44;3.50;99.90
50556;DHT22;36508;52.512;13.450;2022-11-18T01:06:09;3.50;99.90
50556;DHT22;36508;52.512;13.450;2022-11-18T01:08:35;3.40;99.90
50556;DHT22;36508;52.512;13.450;2022-11-18T01:11:00;3.30;99.90
50556;DHT22;36508;52.512;13.450;2022-11-18T01:13:48;3.30;99.90
50556;DHT22;36508;52.512;13.450;2022-11-18T01:16:21;3.40;99.90
50556;DHT22;36508;52.512;13.450;2022-11-18T01:18:47;3.40;99.90
50556;DHT22;36508;52.512;13.450;2022-11-18T01:21:13;3.40;99.90
50556;DHT22;36508;52.512;13.450;2022-11-18T01:23:38;3.30;99.90
50556;DHT22;36508;52.512;13.450;2022-11-18T01:26:06;3.30;99.90
50556;DHT22;36508;52.512;13.450;2022-11-18T01:28:33;3.20;99.90
50556;DHT22;36508;52.512;13.450;2022-11-18T01:31:09;3.30;99.90
50556;DHT22;36508;52.512;13.450;2022-11-18T01:33:35;3.20;99.90
50556;DHT22;36508;52.512;13.450;2022-11-18T01:36:01;3.30;99.90
50556;DHT22;36508;52.512;13.450;2022-11-18T01:38:27;3.30;99.90
50556;DHT22;36508;52.512;13.450;2022-11-18T01:40:53;3.30;99.90
50556;DHT22;36508;52.512;13.450;2022-11-18T01:43:20;3.30;99.90
50556;DHT22;36508;52.512;13.450;2022-11-18T01:45:48;3.30;99.90
50556;DHT22;36508;52.512;13.450;2022-11-18T01:50:57;3.10;99.90
50556;DHT22;36508;52.512;13.450;2022-11-18T01:54:10;3.10;99.90
50556;DHT22;36508;52.512;13.450;2022-11-18T01:56:17;3.10;99.90
50556;DHT22;36508;52.512;13.450;2022-11-18T01:58:57;3.00;99.90
50556;DHT22;36508;52.512;13.450;2022-11-18T02:01:24;3.00;99.90
50556;DHT22;36508;52.512;13.450;2022-11-18T02:03:50;3.00;99.90
50556;DHT22;36508;52.512;13.450;2022-11-18T02:06:17;3.00;99.90
50556;DHT22;36508;52.512;13.450;2022-11-18T02:08:44;3.00;99.90
50556;DHT22;36508;52.512;13.450;2022-11-18T02:11:14;3.00;99.90
50556;DHT22;36508;52.512;13.450;2022-11-18T02:14:00;3.00;99.90
50556;DHT22;36508;52.512;13.450;2022-11-18T02:24:59;3.10;99.90
50556;DHT22;36508;52.512;13.450;2022-11-18T02:28:16;3.00;99.90
50556;DHT22;36508;52.512;13.450;2022-11-18T02:30:18;3.00;99.90
50556;DHT22;36508;52.512;13.450;2022-11-18T02:33:06;3.00;99.90
50556;DHT22;36508;52.512;13.450;2022-11-18T02:35:45;2.90;99.90
50556;DHT22;36508;52.512;13.450;2022-11-18T02:40:48;2.80;99.90
50556;DHT22;36508;52.512;13.450;2022-11-18T02:43:42;2.80;99.90
50556;DHT22;36508;52.512;13.450;2022-11-18T02:46:13;2.80;99.90
50556;DHT22;36508;52.512;13.450;2022-11-18T02:48:43;2.80;99.90
50556;DHT22;36508;52.512;13.450;2022-11-18T02:51:12;2.80;99.90
50556;DHT22;36508;52.512;13.450;2022-11-18T02:53:42;2.80;99.90
50556;DHT22;36508;52.512;13.450;2022-11-18T02:56:10;2.80;99.90
50556;DHT22;36508;52.512;13.450;2022-11-18T02:58:36;2.80;99.90
50556;DHT22;36508;52.512;13.450;2022-11-18T03:01:02;2.80;99.90
50556;DHT22;36508;52.512;13.450;2022-11-18T03:03:29;2.70;99.90
50556;DHT22;36508;52.512;13.450;2022-11-18T03:08:36;2.70;99.90
50556;DHT22;36508;52.512;13.450;2022-11-18T03:11:15;2.70;99.90
50556;DHT22;36508;52.512;13.450;2022-11-18T03:14:05;2.60;99.90
50556;DHT22;36508;52.512;13.450;2022-11-18T03:16:37;2.60;99.90
50556;DHT22;36508;52.512;13.450;2022-11-18T03:21:44;2.50;99.90
50556;DHT22;36508;52.512;13.450;2022-11-18T03:24:30;2.50;99.90
50556;DHT22;36508;52.512;13.450;2022-11-18T03:27:18;2.40;99.90
50556;DHT22;36508;52.512;13.450;2022-11-18T03:29:54;2.40;99.90
50556;DHT22;36508;52.512;13.450;2022-11-18T03:32:26;2.40;99.90
50556;DHT22;36508;52.512;13.450;2022-11-18T03:35:13;2.50;99.90
50556;DHT22;36508;52.512;13.450;2022-11-18T03:37:41;2.40;99.90
50556;DHT22;36508;52.512;13.450;2022-11-18T03:40:17;2.40;99.90
50556;DHT22;36508;52.512;13.450;2022-11-18T03:42:52;2.60;99.90
50556;DHT22;36508;52.512;13.450;2022-11-18T03:45:30;2.60;99.90
50556;DHT22;36508;52.512;13.450;2022-11-18T03:48:06;2.50;99.90
50556;DHT22;36508;52.512;13.450;2022-11-18T03:50:46;2.40;99.90
50556;DHT22;36508;52.512;13.450;2022-11-18T03:53:15;2.60;99.90
50556;DHT22;36508;52.512;13.450;2022-11-18T03:55:45;2.60;99.90
50556;DHT22;36508;52.512;13.450;2022-11-18T04:01:51;2.50;99.90
50556;DHT22;36508;52.512;13.450;2022-11-18T04:04:17;2.40;99.90
50556;DHT22;36508;52.512;13.450;2022-11-18T04:06:49;2.30;99.90
50556;DHT22;36508;52.512;13.450;2022-11-18T04:09:25;2.30;99.90
50556;DHT22;36508;52.512;13.450;2022-11-18T04:11:57;2.30;99.90
50556;DHT22;36508;52.512;13.450;2022-11-18T04:14:30;2.40;99.90
50556;DHT22;36508;52.512;13.450;2022-11-18T04:16:57;2.40;99.90
50556;DHT22;36508;52.512;13.450;2022-11-18T04:19:22;2.40;99.90
50556;DHT22;36508;52.512;13.450;2022-11-18T04:21:48;2.40;99.90
50556;DHT22;36508;52.512;13.450;2022-11-18T04:24:15;2.40;99.90
50556;DHT22;36508;52.512;13.450;2022-11-18T04:26:40;2.30;99.90
50556;DHT22;36508;52.512;13.450;2022-11-18T04:29:06;2.30;99.90
50556;DHT22;36508;52.512;13.450;2022-11-18T04:31:32;2.30;99.90
50556;DHT22;36508;52.512;13.450;2022-11-18T04:33:57;2.40;99.90
50556;DHT22;36508;52.512;13.450;2022-11-18T04:36:23;2.20;99.90
50556;DHT22;36508;52.512;13.450;2022-11-18T04:38:49;2.20;99.90
50556;DHT22;36508;52.512;13.450;2022-11-18T04:41:14;2.30;99.90
50556;DHT22;36508;52.512;13.450;2022-11-18T04:43:40;2.20;99.90
50556;DHT22;36508;52.512;13.450;2022-11-18T04:46:06;2.20;99.90
50556;DHT22;36508;52.512;13.450;2022-11-18T04:48:32;2.20;99.90
50556;DHT22;36508;52.512;13.450;2022-11-18T04:51:02;2.10;99.90
50556;DHT22;36508;52.512;13.450;2022-11-18T04:53:28;2.20;99.90
50556;DHT22;36508;52.512;13.450;2022-11-18T04:55:54;2.30;99.90
50556;DHT22;36508;52.512;13.450;2022-11-18T04:58:19;2.30;99.90
50556;DHT22;36508;52.512;13.450;2022-11-18T05:00:45;2.30;99.90
50556;DHT22;36508;52.512;13.450;2022-11-18T05:03:10;2.30;99.90
50556;DHT22;36508;52.512;13.450;2022-11-18T05:05:36;2.30;99.90
50556;DHT22;36508;52.512;13.450;2022-11-18T05:08:01;2.40;99.90
50556;DHT22;36508;52.512;13.450;2022-11-18T05:10:27;2.40;99.90
50556;DHT22;36508;52.512;13.450;2022-11-18T05:12:53;2.40;99.90
50556;DHT22;36508;52.512;13.450;2022-11-18T05:15:20;2.40;99.90
50556;DHT22;36508;52.512;13.450;2022-11-18T05:17:48;2.30;99.90
50556;DHT22;36508;52.512;13.450;2022-11-18T05:20:13;2.30;99.90
50556;DHT22;36508;52.512;13.450;2022-11-18T05:22:39;2.30;99.90
50556;DHT22;36508;52.512;13.450;2022-11-18T05:25:05;2.30;99.90
50556;DHT22;36508;52.512;13.450;2022-11-18T05:27:31;2.20;99.90
50556;DHT22;36508;52.512;13.450;2022-11-18T05:29:57;2.20;99.90
50556;DHT22;36508;52.512;13.450;2022-11-18T05:32:22;2.20;99.90
50556;DHT22;36508;52.512;13.450;2022-11-18T05:34:48;2.10;99.90
50556;DHT22;36508;52.512;13.450;2022-11-18T05:37:14;2.00;99.90
50556;DHT22;36508;52.512;13.450;2022-11-18T05:39:39;1.90;99.90
50556;DHT22;36508;52.512;13.450;2022-11-18T05:42:05;2.10;99.90
50556;DHT22;36508;52.512;13.450;2022-11-18T05:44:49;2.00;99.90
50556;DHT22;36508;52.512;13.450;2022-11-18T05:47:17;2.00;99.90
50556;DHT22;36508;52.512;13.450;2022-11-18T05:49:42;1.90;99.90
50556;DHT22;36508;52.512;13.450;2022-11-18T05:52:08;2.00;99.90
50556;DHT22;36508;52.512;13.450;2022-11-18T05:54:34;1.90;99.90
50556;DHT22;36508;52.512;13.450;2022-11-18T05:57:02;2.00;99.90
50556;DHT22;36508;52.512;13.450;2022-11-18T05:59:28;2.00;99.90
50556;DHT22;36508;52.512;13.450;2022-11-18T06:01:55;2.20;99.90
50556;DHT22;36508;52.512;13.450;2022-11-18T06:04:29;2.20;99.90
50556;DHT22;36508;52.512;13.450;2022-11-18T06:07:05;2.10;99.90
50556;DHT22;36508;52.512;13.450;2022-11-18T06:09:36;2.30;99.90
50556;DHT22;36508;52.512;13.450;2022-11-18T06:12:04;2.00;99.90
50556;DHT22;36508;52.512;13.450;2022-11-18T06:14:41;2.00;99.90
50556;DHT22;36508;52.512;13.450;2022-11-18T06:17:16;2.00;99.90
50556;DHT22;36508;52.512;13.450;2022-11-18T06:19:43;2.00;99.90
50556;DHT22;36508;52.512;13.450;2022-11-18T06:22:09;2.00;99.90
50556;DHT22;36508;52.512;13.450;2022-11-18T06:24:35;2.00;99.90
50556;DHT22;36508;52.512;13.450;2022-11-18T06:27:02;2.00;99.90
50556;DHT22;36508;52.512;13.450;2022-11-18T06:29:29;2.00;99.90
50556;DHT22;36508;52.512;13.450;2022-11-18T06:31:55;2.00;99.90
50556;DHT22;36508;52.512;13.450;2022-11-18T06:34:21;1.90;99.90
50556;DHT22;36508;52.512;13.450;2022-11-18T06:36:47;2.00;99.90
50556;DHT22;36508;52.512;13.450;2022-11-18T06:39:12;2.00;99.90
50556;DHT22;36508;52.512;13.450;2022-11-18T06:41:38;1.90;99.90
50556;DHT22;36508;52.512;13.450;2022-11-18T06:44:04;1.90;99.90
50556;DHT22;36508;52.512;13.450;2022-11-18T06:46:29;2.00;99.90
50556;DHT22;36508;52.512;13.450;2022-11-18T06:49:14;2.00;99.90
50556;DHT22;36508;52.512;13.450;2022-11-18T06:51:39;2.00;99.90
50556;DHT22;36508;52.512;13.450;2022-11-18T06:54:05;1.80;99.90
50556;DHT22;36508;52.512;13.450;2022-11-18T06:56:30;2.00;99.90
50556;DHT22;36508;52.512;13.450;2022-11-18T06:58:57;2.00;99.90
50556;DHT22;36508;52.512;13.450;2022-11-18T07:01:25;1.90;99.90
50556;DHT22;36508;52.512;13.450;2022-11-18T07:03:52;1.80;99.90
50556;DHT22;36508;52.512;13.450;2022-11-18T07:06:20;1.80;99.90
50556;DHT22;36508;52.512;13.450;2022-11-18T07:08:46;1.90;99.90
50556;DHT22;36508;52.512;13.450;2022-11-18T07:11:16;1.80;99.90
50556;DHT22;36508;52.512;13.450;2022-11-18T07:13:42;1.80;99.90
50556;DHT22;36508;52.512;13.450;2022-11-18T07:16:19;1.90;99.90
50556;DHT22;36508;52.512;13.450;2022-11-18T07:18:46;1.80;99.90
50556;DHT22;36508;52.512;13.450;2022-11-18T07:21:20;1.80;99.90
50556;DHT22;36508;52.512;13.450;2022-11-18T07:23:46;1.60;99.90
50556;DHT22;36508;52.512;13.450;2022-11-18T07:26:12;1.50;99.90
50556;DHT22;36508;52.512;13.450;2022-11-18T07:28:39;1.60;99.90
50556;DHT22;36508;52.512;13.450;2022-11-18T07:31:07;1.70;99.90
50556;DHT22;36508;52.512;13.450;2022-11-18T07:33:33;1.80;99.90
50556;DHT22;36508;52.512;13.450;2022-11-18T07:36:10;1.90;99.90
50556;DHT22;36508;52.512;13.450;2022-11-18T07:38:36;1.80;99.90
50556;DHT22;36508;52.512;13.450;2022-11-18T07:41:07;1.90;99.90
50556;DHT22;36508;52.512;13.450;2022-11-18T07:43:34;1.90;99.90
50556;DHT22;36508;52.512;13.450;2022-11-18T07:48:41;1.90;99.90
50556;DHT22;36508;52.512;13.450;2022-11-18T07:51:07;1.90;99.90
50556;DHT22;36508;52.512;13.450;2022-11-18T07:53:34;1.90;99.90
50556;DHT22;36508;52.512;13.450;2022-11-18T07:56:00;1.80;99.90
50556;DHT22;36508;52.512;13.450;2022-11-18T07:58:25;1.80;99.90
50556;DHT22;36508;52.512;13.450;2022-11-18T08:00:51;1.80;99.90
50556;DHT22;36508;52.512;13.450;2022-11-18T08:03:17;1.90;99.90
50556;DHT22;36508;52.512;13.450;2022-11-18T08:05:43;2.00;99.90
50556;DHT22;36508;52.512;13.450;2022-11-18T08:08:08;2.00;99.90
50556;DHT22;36508;52.512;13.450;2022-11-18T08:10:35;2.00;99.90
50556;DHT22;36508;52.512;13.450;2022-11-18T08:13:01;2.00;99.90
50556;DHT22;36508;52.512;13.450;2022-11-18T08:15:26;1.90;99.90
50556;DHT22;36508;52.512;13.450;2022-11-18T08:17:52;1.90;99.90
50556;DHT22;36508;52.512;13.450;2022-11-18T08:20:17;2.00;99.90
50556;DHT22;36508;52.512;13.450;2022-11-18T08:22:43;2.00;99.90
50556;DHT22;36508;52.512;13.450;2022-11-18T08:25:09;2.00;99.90
50556;DHT22;36508;52.512;13.450;2022-11-18T08:27:34;2.10;99.90
50556;DHT22;36508;52.512;13.450;2022-11-18T08:30:00;2.40;99.90
50556;DHT22;36508;52.512;13.450;2022-11-18T08:32:26;2.30;99.90
50556;DHT22;36508;52.512;13.450;2022-11-18T08:34:51;2.20;99.90
50556;DHT22;36508;52.512;13.450;2022-11-18T08:37:17;2.10;99.90
50556;DHT22;36508;52.512;13.450;2022-11-18T08:39:42;2.00;99.90
50556;DHT22;36508;52.512;13.450;2022-11-18T08:42:09;2.00;99.90
50556;DHT22;36508;52.512;13.450;2022-11-18T08:44:35;2.00;99.90
50556;DHT22;36508;52.512;13.450;2022-11-18T08:47:01;2.00;99.90
50556;DHT22;36508;52.512;13.450;2022-11-18T08:49:26;2.10;99.90
50556;DHT22;36508;52.512;13.450;2022-11-18T08:51:52;2.20;99.90
50556;DHT22;36508;52.512;13.450;2022-11-18T08:54:18;2.20;99.90
50556;DHT22;36508;52.512;13.450;2022-11-18T08:56:45;2.20;99.90
50556;DHT22;36508;52.512;13.450;2022-11-18T08:59:11;2.20;99.90
50556;DHT22;36508;52.512;13.450;2022-11-18T09:01:37;2.30;99.90
50556;DHT22;36508;52.512;13.450;2022-11-18T09:04:03;2.30;99.90
50556;DHT22;36508;52.512;13.450;2022-11-18T09:06:29;2.20;99.90
50556;DHT22;36508;52.512;13.450;2022-11-18T09:08:55;2.10;99.90
50556;DHT22;36508;52.512;13.450;2022-11-18T09:11:25;2.00;99.90
50556;DHT22;36508;52.512;13.450;2022-11-18T09:13:52;1.90;99.90
50556;DHT22;36508;52.512;13.450;2022-11-18T09:16:18;1.80;99.90
50556;DHT22;36508;52.512;13.450;2022-11-18T09:18:44;1.80;99.90
50556;DHT22;36508;52.512;13.450;2022-11-18T09:21:09;1.80;99.90
50556;DHT22;36508;52.512;13.450;2022-11-18T09:23:36;1.70;99.90
50556;DHT22;36508;52.512;13.450;2022-11-18T09:26:10;1.50;99.90
50556;DHT22;36508;52.512;13.450;2022-11-18T09:28:36;1.60;99.90
50556;DHT22;36508;52.512;13.450;2022-11-18T09:31:08;1.70;99.90
50556;DHT22;36508;52.512;13.450;2022-11-18T09:33:34;1.90;99.90
50556;DHT22;36508;52.512;13.450;2022-11-18T09:36:00;2.00;99.90
50556;DHT22;36508;52.512;13.450;2022-11-18T09:38:31;2.00;99.90
50556;DHT22;36508;52.512;13.450;2022-11-18T09:49:34;2.20;99.90
50556;DHT22;36508;52.512;13.450;2022-11-18T09:52:04;2.20;99.90
50556;DHT22;36508;52.512;13.450;2022-11-18T09:54:33;2.10;99.90
50556;DHT22;36508;52.512;13.450;2022-11-18T09:56:59;2.10;99.90
50556;DHT22;36508;52.512;13.450;2022-11-18T09:59:30;2.00;99.90
50556;DHT22;36508;52.512;13.450;2022-11-18T10:04:37;2.00;99.90
50556;DHT22;36508;52.512;13.450;2022-11-18T10:07:09;2.00;99.90
50556;DHT22;36508;52.512;13.450;2022-11-18T10:09:40;1.90;99.90
50556;DHT22;36508;52.512;13.450;2022-11-18T10:20:41;1.90;99.90
50556;DHT22;36508;52.512;13.450;2022-11-18T10:23:50;2.00;99.90
50556;DHT22;36508;52.512;13.450;2022-11-18T10:26:07;2.10;99.90
50556;DHT22;36508;52.512;13.450;2022-11-18T10:28:33;1.80;99.90
50556;DHT22;36508;52.512;13.450;2022-11-18T10:31:08;1.80;99.90
50556;DHT22;36508;52.512;13.450;2022-11-18T10:33:34;1.80;99.90
50556;DHT22;36508;52.512;13.450;2022-11-18T10:38:42;2.10;99.90
50556;DHT22;36508;52.512;13.450;2022-11-18T10:41:11;2.20;99.90
50556;DHT22;36508;52.512;13.450;2022-11-18T10:43:49;2.20;99.90
50556;DHT22;36508;52.512;13.450;2022-11-18T10:46:28;2.30;99.90
50556;DHT22;36508;52.512;13.450;2022-11-18T10:49:22;2.30;99.90
50556;DHT22;36508;52.512;13.450;2022-11-18T10:52:08;2.30;99.90
50556;DHT22;36508;52.512;13.450;2022-11-18T10:54:35;2.40;99.90
50556;DHT22;36508;52.512;13.450;2022-11-18T10:57:20;2.30;99.90
50556;DHT22;36508;52.512;13.450;2022-11-18T10:59:53;2.40;99.90
50556;DHT22;36508;52.512;13.450;2022-11-18T11:04:57;2.40;99.90
50556;DHT22;36508;52.512;13.450;2022-11-18T11:07:41;2.50;99.90
50556;DHT22;36508;52.512;13.450;2022-11-18T11:12:40;2.20;99.90
50556;DHT22;36508;52.512;13.450;2022-11-18T11:15:21;2.10;99.90
50556;DHT22;36508;52.512;13.450;2022-11-18T11:18:10;2.00;99.90
50556;DHT22;36508;52.512;13.450;2022-11-18T11:20:56;2.10;99.90
50556;DHT22;36508;52.512;13.450;2022-11-18T11:23:25;2.10;99.90
50556;DHT22;36508;52.512;13.450;2022-11-18T11:25:58;2.20;99.90
50556;DHT22;36508;52.512;13.450;2022-11-18T11:39:53;2.30;99.90
50556;DHT22;36508;52.512;13.450;2022-11-18T11:45:34;2.40;99.90
50556;DHT22;36508;52.512;13.450;2022-11-18T11:51:30;2.50;99.90
50556;DHT22;36508;52.512;13.450;2022-11-18T11:54:21;2.40;99.90
50556;DHT22;36508;52.512;13.450;2022-11-18T11:57:02;2.30;99.90
50556;DHT22;36508;52.512;13.450;2022-11-18T11:59:43;2.30;99.90
50556;DHT22;36508;52.512;13.450;2022-11-18T12:04:59;2.40;99.90
50556;DHT22;36508;52.512;13.450;2022-11-18T12:07:30;2.40;99.90
50556;DHT22;36508;52.512;13.450;2022-11-18T12:12:59;2.50;99.90
50556;DHT22;36508;52.512;13.450;2022-11-18T12:15:45;2.60;99.90
50556;DHT22;36508;52.512;13.450;2022-11-18T12:18:41;2.60;99.90
50556;DHT22;36508;52.512;13.450;2022-11-18T12:26:43;2.90;99.90
50556;DHT22;36508;52.512;13.450;2022-11-18T12:29:24;2.90;99.90
50556;DHT22;36508;52.512;13.450;2022-11-18T12:31:52;3.00;99.90
50556;DHT22;36508;52.512;13.450;2022-11-18T12:34:34;3.40;99.90
50556;DHT22;36508;52.512;13.450;2022-11-18T12:42:51;4.00;99.90
50556;DHT22;36508;52.512;13.450;2022-11-18T12:50:50;3.60;99.90
50556;DHT22;36508;52.512;13.450;2022-11-18T12:53:39;3.10;99.90
50556;DHT22;36508;52.512;13.450;2022-11-18T12:58:48;2.70;99.90
50556;DHT22;36508;52.512;13.450;2022-11-18T13:01:19;2.60;99.90
50556;DHT22;36508;52.512;13.450;2022-11-18T13:03:46;2.50;99.90
50556;DHT22;36508;52.512;13.450;2022-11-18T13:08:50;2.50;99.90
50556;DHT22;36508;52.512;13.450;2022-11-18T13:11:17;2.40;99.90
50556;DHT22;36508;52.512;13.450;2022-11-18T13:14:03;2.40;99.90
50556;DHT22;36508;52.512;13.450;2022-11-18T13:16:49;2.30;99.90
50556;DHT22;36508;52.512;13.450;2022-11-18T13:19:33;2.30;99.90
50556;DHT22;36508;52.512;13.450;2022-11-18T13:22:00;2.30;99.90
50556;DHT22;36508;52.512;13.450;2022-11-18T13:24:49;2.40;99.90
50556;DHT22;36508;52.512;13.450;2022-11-18T13:30:05;2.30;99.90
50556;DHT22;36508;52.512;13.450;2022-11-18T13:32:34;2.20;99.90
50556;DHT22;36508;52.512;13.450;2022-11-18T13:35:21;2.20;99.90
50556;DHT22;36508;52.512;13.450;2022-11-18T13:37:55;2.30;99.90
50556;DHT22;36508;52.512;13.450;2022-11-18T13:40:27;2.30;99.90
50556;DHT22;36508;52.512;13.450;2022-11-18T13:42:54;2.30;99.90
50556;DHT22;36508;52.512;13.450;2022-11-18T13:45:24;2.30;99.90
50556;DHT22;36508;52.512;13.450;2022-11-18T13:48:00;2.30;99.90
50556;DHT22;36508;52.512;13.450;2022-11-18T13:50:38;2.20;99.90
50556;DHT22;36508;52.512;13.450;2022-11-18T13:53:38;2.10;99.90
50556;DHT22;36508;52.512;13.450;2022-11-18T13:56:06;2.00;99.90
50556;DHT22;36508;52.512;13.450;2022-11-18T14:01:04;2.00;99.90
50556;DHT22;36508;52.512;13.450;2022-11-18T14:03:32;2.00;99.90
50556;DHT22;36508;52.512;13.450;2022-11-18T14:05:59;2.00;99.90
50556;DHT22;36508;52.512;13.450;2022-11-18T14:10:55;1.90;99.90
50556;DHT22;36508;52.512;13.450;2022-11-18T14:13:32;1.90;99.90
50556;DHT22;36508;52.512;13.450;2022-11-18T14:16:02;1.90;99.90
50556;DHT22;36508;52.512;13.450;2022-11-18T14:18:49;1.90;99.90
50556;DHT22;36508;52.512;13.450;2022-11-18T14:21:35;1.90;99.90
50556;DHT22;36508;52.512;13.450;2022-11-18T14:24:02;1.90;99.90
50556;DHT22;36508;52.512;13.450;2022-11-18T14:26:30;1.90;99.90
50556;DHT22;36508;52.512;13.450;2022-11-18T14:28:58;1.90;99.90
50556;DHT22;36508;52.512;13.450;2022-11-18T14:31:31;1.90;99.90
50556;DHT22;36508;52.512;13.450;2022-11-18T14:36:44;1.80;99.90
50556;DHT22;36508;52.512;13.450;2022-11-18T14:39:26;1.80;99.90
50556;DHT22;36508;52.512;13.450;2022-11-18T14:41:52;1.80;99.90
50556;DHT22;36508;52.512;13.450;2022-11-18T14:44:20;1.80;99.90
50556;DHT22;36508;52.512;13.450;2022-11-18T14:49:19;1.80;99.90
50556;DHT22;36508;52.512;13.450;2022-11-18T14:51:49;1.80;99.90
50556;DHT22;36508;52.512;13.450;2022-11-18T14:54:17;1.80;99.90
50556;DHT22;36508;52.512;13.450;2022-11-18T14:56:43;1.70;99.90
50556;DHT22;36508;52.512;13.450;2022-11-18T14:59:11;1.70;99.90
50556;DHT22;36508;52.512;13.450;2022-11-18T15:01:38;1.60;99.90
50556;DHT22;36508;52.512;13.450;2022-11-18T15:04:03;1.60;99.90
50556;DHT22;36508;52.512;13.450;2022-11-18T15:06:29;1.60;99.90
50556;DHT22;36508;52.512;13.450;2022-11-18T15:08:55;1.70;99.90
50556;DHT22;36508;52.512;13.450;2022-11-18T15:11:20;1.60;99.90
50556;DHT22;36508;52.512;13.450;2022-11-18T15:13:46;1.60;99.90
50556;DHT22;36508;52.512;13.450;2022-11-18T15:16:16;1.50;99.90
50556;DHT22;36508;52.512;13.450;2022-11-18T15:18:42;1.50;99.90
50556;DHT22;36508;52.512;13.450;2022-11-18T15:21:08;1.50;99.90
50556;DHT22;36508;52.512;13.450;2022-11-18T15:23:34;1.40;99.90
50556;DHT22;36508;52.512;13.450;2022-11-18T15:26:00;1.40;99.90
50556;DHT22;36508;52.512;13.450;2022-11-18T15:28:25;1.40;99.90
50556;DHT22;36508;52.512;13.450;2022-11-18T15:30:51;1.40;99.90
50556;DHT22;36508;52.512;13.450;2022-11-18T15:33:17;1.30;99.90
50556;DHT22;36508;52.512;13.450;2022-11-18T15:35:42;1.20;99.90
50556;DHT22;36508;52.512;13.450;2022-11-18T15:38:10;1.30;99.90
50556;DHT22;36508;52.512;13.450;2022-11-18T15:40:36;1.20;99.90
50556;DHT22;36508;52.512;13.450;2022-11-18T15:43:03;1.30;99.90
50556;DHT22;36508;52.512;13.450;2022-11-18T15:45:29;1.30;99.90
50556;DHT22;36508;52.512;13.450;2022-11-18T15:47:55;1.20;99.90
50556;DHT22;36508;52.512;13.450;2022-11-18T15:50:24;1.20;99.90
50556;DHT22;36508;52.512;13.450;2022-11-18T15:52:49;1.20;99.90
50556;DHT22;36508;52.512;13.450;2022-11-18T15:55:15;1.10;99.90
50556;DHT22;36508;52.512;13.450;2022-11-18T15:57:41;1.10;99.90
50556;DHT22;36508;52.512;13.450;2022-11-18T16:00:07;1.10;99.90
50556;DHT22;36508;52.512;13.450;2022-11-18T16:02:33;1.10;99.90
50556;DHT22;36508;52.512;13.450;2022-11-18T16:04:59;1.10;99.90
50556;DHT22;36508;52.512;13.450;2022-11-18T16:07:25;1.10;99.90
50556;DHT22;36508;52.512;13.450;2022-11-18T16:09:50;1.10;99.90
50556;DHT22;36508;52.512;13.450;2022-11-18T16:12:34;1.10;99.90
50556;DHT22;36508;52.512;13.450;2022-11-18T16:15:15;1.10;99.90
50556;DHT22;36508;52.512;13.450;2022-11-18T16:18:01;1.00;99.90
50556;DHT22;36508;52.512;13.450;2022-11-18T16:20:28;0.90;99.90
50556;DHT22;36508;52.512;13.450;2022-11-18T16:22:54;0.90;99.90
50556;DHT22;36508;52.512;13.450;2022-11-18T16:25:20;1.00;99.90
50556;DHT22;36508;52.512;13.450;2022-11-18T16:27:46;1.00;99.90
50556;DHT22;36508;52.512;13.450;2022-11-18T16:30:12;0.90;99.90
50556;DHT22;36508;52.512;13.450;2022-11-18T16:32:58;0.90;99.90
50556;DHT22;36508;52.512;13.450;2022-11-18T16:35:24;0.90;99.90
50556;DHT22;36508;52.512;13.450;2022-11-18T16:37:50;0.80;99.90
50556;DHT22;36508;52.512;13.450;2022-11-18T16:40:16;0.90;99.90
50556;DHT22;36508;52.512;13.450;2022-11-18T16:42:42;0.90;99.90
50556;DHT22;36508;52.512;13.450;2022-11-18T16:45:08;0.80;99.90
50556;DHT22;36508;52.512;13.450;2022-11-18T16:47:34;0.80;99.90
50556;DHT22;36508;52.512;13.450;2022-11-18T16:50:01;0.70;99.90
50556;DHT22;36508;52.512;13.450;2022-11-18T16:52:27;0.70;99.90
50556;DHT22;36508;52.512;13.450;2022-11-18T16:54:52;0.60;99.90
50556;DHT22;36508;52.512;13.450;2022-11-18T16:57:18;0.50;99.90
50556;DHT22;36508;52.512;13.450;2022-11-18T16:59:44;0.40;99.90
50556;DHT22;36508;52.512;13.450;2022-11-18T17:02:11;0.40;99.90
50556;DHT22;36508;52.512;13.450;2022-11-18T17:04:37;0.40;99.90
50556;DHT22;36508;52.512;13.450;2022-11-18T17:07:04;0.30;99.90
50556;DHT22;36508;52.512;13.450;2022-11-18T17:09:29;0.20;99.90
50556;DHT22;36508;52.512;13.450;2022-11-18T17:11:55;0.20;99.90
50556;DHT22;36508;52.512;13.450;2022-11-18T17:14:23;0.20;99.90
50556;DHT22;36508;52.512;13.450;2022-11-18T17:16:51;0.30;99.90
50556;DHT22;36508;52.512;13.450;2022-11-18T17:19:19;0.20;99.90
50556;DHT22;36508;52.512;13.450;2022-11-18T17:21:45;0.20;99.90
50556;DHT22;36508;52.512;13.450;2022-11-18T17:24:20;0.10;99.90
50556;DHT22;36508;52.512;13.450;2022-11-18T17:26:46;0.10;99.90
50556;DHT22;36508;52.512;13.450;2022-11-18T17:29:13;0.00;99.90
50556;DHT22;36508;52.512;13.450;2022-11-18T17:31:39;0.10;99.90
50556;DHT22;36508;52.512;13.450;2022-11-18T17:34:09;0.00;99.90
50556;DHT22;36508;52.512;13.450;2022-11-18T17:36:35;0.00;99.90
50556;DHT22;36508;52.512;13.450;2022-11-18T17:39:01;0.00;99.90